sensor_id;sensor_type;location;lat;lon;timestamp;P1;durP1;ratioP1;P2;durP2;ratioP2
73100;SDS011;61288;53.446;-2.266;2023-12-07T00:00:50;19.30;;;7.78;;
73100;SDS011;61288;53.446;-2.266;2023-12-07T00:03:15;17.05;;;6.95;;
73100;SDS011;61288;53.446;-2.266;2023-12-07T00:05:41;15.30;;;7.78;;
73100;SDS011;61288;53.446;-2.266;2023-12-07T00:08:09;18.75;;;7.25;;
73100;SDS011;61288;53.446;-2.266;2023-12-07T00:10:36;16.25;;;7.05;;
73100;SDS011;61288;53.446;-2.266;2023-12-07T00:13:01;17.98;;;6.97;;
73100;SDS011;61288;53.446;-2.266;2023-12-07T00:15:27;17.25;;;7.20;;
73100;SDS011;61288;53.446;-2.266;2023-12-07T00:17:52;18.27;;;7.47;;
73100;SDS011;61288;53.446;-2.266;2023-12-07T00:20:18;18.00;;;7.20;;
73100;SDS011;61288;53.446;-2.266;2023-12-07T00:22:43;15.88;;;6.97;;
73100;SDS011;61288;53.446;-2.266;2023-12-07T00:25:09;18.77;;;7.18;;
73100;SDS011;61288;53.446;-2.266;2023-12-07T00:27:34;16.65;;;7.35;;
73100;SDS011;61288;53.446;-2.266;2023-12-07T00:29:59;15.10;;;6.85;;
73100;SDS011;61288;53.446;-2.266;2023-12-07T00:35:16;18.70;;;6.90;;
73100;SDS011;61288;53.446;-2.266;2023-12-07T00:37:41;16.05;;;6.93;;
73100;SDS011;61288;53.446;-2.266;2023-12-07T00:40:07;16.45;;;6.72;;
73100;SDS011;61288;53.446;-2.266;2023-12-07T00:42:33;17.60;;;7.50;;
73100;SDS011;61288;53.446;-2.266;2023-12-07T00:45:00;16.67;;;6.40;;
73100;SDS011;61288;53.446;-2.266;2023-12-07T00:47:26;17.02;;;6.78;;
73100;SDS011;61288;53.446;-2.266;2023-12-07T00:49:51;18.23;;;6.53;;
73100;SDS011;61288;53.446;-2.266;2023-12-07T00:52:17;13.88;;;6.38;;
73100;SDS011;61288;53.446;-2.266;2023-12-07T00:54:43;14.70;;;6.47;;
73100;SDS011;61288;53.446;-2.266;2023-12-07T00:57:09;15.60;;;5.72;;
73100;SDS011;61288;53.446;-2.266;2023-12-07T00:59:35;15.38;;;6.18;;
73100;SDS011;61288;53.446;-2.266;2023-12-07T01:02:02;16.38;;;5.57;;
73100;SDS011;61288;53.446;-2.266;2023-12-07T01:04:29;16.73;;;6.00;;
73100;SDS011;61288;53.446;-2.266;2023-12-07T01:06:57;12.35;;;5.78;;
73100;SDS011;61288;53.446;-2.266;2023-12-07T01:09:23;13.20;;;5.35;;
73100;SDS011;61288;53.446;-2.266;2023-12-07T01:11:49;15.95;;;5.97;;
73100;SDS011;61288;53.446;-2.266;2023-12-07T01:14:14;13.73;;;5.43;;
73100;SDS011;61288;53.446;-2.266;2023-12-07T01:16:41;14.75;;;5.75;;
73100;SDS011;61288;53.446;-2.266;2023-12-07T01:19:07;12.68;;;5.85;;
73100;SDS011;61288;53.446;-2.266;2023-12-07T01:21:33;14.55;;;5.95;;
73100;SDS011;61288;53.446;-2.266;2023-12-07T01:23:58;17.77;;;5.35;;
73100;SDS011;61288;53.446;-2.266;2023-12-07T01:26:24;10.80;;;4.07;;
73100;SDS011;61288;53.446;-2.266;2023-12-07T01:28:50;12.43;;;4.50;;
73100;SDS011;61288;53.446;-2.266;2023-12-07T01:31:15;13.55;;;5.32;;
73100;SDS011;61288;53.446;-2.266;2023-12-07T01:33:42;13.75;;;4.80;;
73100;SDS011;61288;53.446;-2.266;2023-12-07T01:36:08;11.50;;;4.82;;
73100;SDS011;61288;53.446;-2.266;2023-12-07T01:38:33;14.75;;;5.05;;
73100;SDS011;61288;53.446;-2.266;2023-12-07T01:40:59;12.45;;;4.70;;
73100;SDS011;61288;53.446;-2.266;2023-12-07T01:43:24;10.32;;;4.55;;
73100;SDS011;61288;53.446;-2.266;2023-12-07T01:45:50;12.98;;;4.68;;
73100;SDS011;61288;53.446;-2.266;2023-12-07T01:48:19;13.02;;;4.88;;
73100;SDS011;61288;53.446;-2.266;2023-12-07T01:50:46;11.82;;;4.80;;
73100;SDS011;61288;53.446;-2.266;2023-12-07T01:53:13;15.95;;;5.43;;
73100;SDS011;61288;53.446;-2.266;2023-12-07T01:55:40;12.50;;;4.40;;
73100;SDS011;61288;53.446;-2.266;2023-12-07T01:58:06;12.55;;;4.60;;
73100;SDS011;61288;53.446;-2.266;2023-12-07T02:00:47;12.80;;;5.10;;
73100;SDS011;61288;53.446;-2.266;2023-12-07T02:03:14;11.18;;;4.70;;
73100;SDS011;61288;53.446;-2.266;2023-12-07T02:05:42;12.25;;;4.00;;
73100;SDS011;61288;53.446;-2.266;2023-12-07T02:08:08;12.75;;;4.93;;
73100;SDS011;61288;53.446;-2.266;2023-12-07T02:10:34;13.45;;;4.50;;
73100;SDS011;61288;53.446;-2.266;2023-12-07T02:13:00;13.77;;;5.03;;
73100;SDS011;61288;53.446;-2.266;2023-12-07T02:15:25;14.50;;;4.57;;
73100;SDS011;61288;53.446;-2.266;2023-12-07T02:17:53;11.05;;;4.57;;
73100;SDS011;61288;53.446;-2.266;2023-12-07T02:23:00;12.88;;;4.47;;
73100;SDS011;61288;53.446;-2.266;2023-12-07T02:25:32;17.48;;;5.25;;
73100;SDS011;61288;53.446;-2.266;2023-12-07T02:28:02;14.13;;;4.47;;
73100;SDS011;61288;53.446;-2.266;2023-12-07T02:30:28;14.60;;;4.90;;
73100;SDS011;61288;53.446;-2.266;2023-12-07T02:32:54;14.98;;;4.47;;
73100;SDS011;61288;53.446;-2.266;2023-12-07T02:35:19;13.25;;;4.70;;
73100;SDS011;61288;53.446;-2.266;2023-12-07T02:37:49;13.07;;;4.80;;
73100;SDS011;61288;53.446;-2.266;2023-12-07T02:40:22;13.60;;;5.05;;
73100;SDS011;61288;53.446;-2.266;2023-12-07T02:42:50;13.30;;;4.63;;
73100;SDS011;61288;53.446;-2.266;2023-12-07T02:45:17;14.63;;;5.15;;
73100;SDS011;61288;53.446;-2.266;2023-12-07T02:47:42;16.05;;;5.68;;
73100;SDS011;61288;53.446;-2.266;2023-12-07T02:50:08;14.30;;;5.60;;
73100;SDS011;61288;53.446;-2.266;2023-12-07T02:52:35;17.85;;;5.22;;
73100;SDS011;61288;53.446;-2.266;2023-12-07T02:55:01;20.20;;;7.07;;
73100;SDS011;61288;53.446;-2.266;2023-12-07T02:57:28;13.75;;;5.40;;
73100;SDS011;61288;53.446;-2.266;2023-12-07T02:59:55;15.25;;;5.32;;
73100;SDS011;61288;53.446;-2.266;2023-12-07T03:02:21;16.30;;;5.50;;
73100;SDS011;61288;53.446;-2.266;2023-12-07T03:04:46;14.27;;;5.88;;
73100;SDS011;61288;53.446;-2.266;2023-12-07T03:07:12;15.93;;;5.70;;
73100;SDS011;61288;53.446;-2.266;2023-12-07T03:09:37;13.32;;;5.72;;
73100;SDS011;61288;53.446;-2.266;2023-12-07T03:12:03;16.67;;;5.65;;
73100;SDS011;61288;53.446;-2.266;2023-12-07T03:14:29;15.15;;;5.50;;
73100;SDS011;61288;53.446;-2.266;2023-12-07T03:16:54;15.15;;;5.70;;
73100;SDS011;61288;53.446;-2.266;2023-12-07T03:19:20;13.23;;;4.55;;
73100;SDS011;61288;53.446;-2.266;2023-12-07T03:21:45;13.60;;;5.13;;
73100;SDS011;61288;53.446;-2.266;2023-12-07T03:24:11;15.27;;;5.40;;
73100;SDS011;61288;53.446;-2.266;2023-12-07T03:26:37;12.82;;;5.50;;
73100;SDS011;61288;53.446;-2.266;2023-12-07T03:29:03;13.60;;;5.18;;
73100;SDS011;61288;53.446;-2.266;2023-12-07T03:31:29;12.60;;;5.70;;
73100;SDS011;61288;53.446;-2.266;2023-12-07T03:33:55;15.20;;;5.60;;
73100;SDS011;61288;53.446;-2.266;2023-12-07T03:36:21;13.70;;;5.50;;
73100;SDS011;61288;53.446;-2.266;2023-12-07T03:38:48;15.40;;;5.30;;
73100;SDS011;61288;53.446;-2.266;2023-12-07T03:41:18;12.65;;;5.10;;
73100;SDS011;61288;53.446;-2.266;2023-12-07T03:43:44;14.10;;;4.65;;
73100;SDS011;61288;53.446;-2.266;2023-12-07T03:46:10;17.88;;;5.88;;
73100;SDS011;61288;53.446;-2.266;2023-12-07T03:48:35;14.35;;;5.30;;
73100;SDS011;61288;53.446;-2.266;2023-12-07T03:51:01;14.52;;;5.30;;
73100;SDS011;61288;53.446;-2.266;2023-12-07T03:53:27;19.15;;;5.30;;
73100;SDS011;61288;53.446;-2.266;2023-12-07T03:55:53;12.90;;;5.22;;
73100;SDS011;61288;53.446;-2.266;2023-12-07T03:58:19;17.38;;;5.68;;
73100;SDS011;61288;53.446;-2.266;2023-12-07T04:00:44;15.68;;;5.55;;
73100;SDS011;61288;53.446;-2.266;2023-12-07T04:03:10;13.25;;;5.38;;
73100;SDS011;61288;53.446;-2.266;2023-12-07T04:05:36;14.48;;;5.43;;
73100;SDS011;61288;53.446;-2.266;2023-12-07T04:08:01;11.75;;;4.60;;
73100;SDS011;61288;53.446;-2.266;2023-12-07T04:10:26;11.60;;;5.00;;
73100;SDS011;61288;53.446;-2.266;2023-12-07T04:12:52;11.15;;;4.78;;
73100;SDS011;61288;53.446;-2.266;2023-12-07T04:15:18;12.40;;;5.07;;
73100;SDS011;61288;53.446;-2.266;2023-12-07T04:17:45;10.98;;;4.70;;
73100;SDS011;61288;53.446;-2.266;2023-12-07T04:20:11;11.68;;;4.80;;
73100;SDS011;61288;53.446;-2.266;2023-12-07T04:22:38;10.93;;;4.45;;
73100;SDS011;61288;53.446;-2.266;2023-12-07T04:25:05;14.77;;;4.70;;
73100;SDS011;61288;53.446;-2.266;2023-12-07T04:27:31;13.52;;;4.30;;
73100;SDS011;61288;53.446;-2.266;2023-12-07T04:29:57;10.77;;;4.50;;
73100;SDS011;61288;53.446;-2.266;2023-12-07T04:32:23;11.20;;;4.38;;
73100;SDS011;61288;53.446;-2.266;2023-12-07T04:34:48;11.68;;;4.13;;
73100;SDS011;61288;53.446;-2.266;2023-12-07T04:37:14;11.38;;;4.43;;
73100;SDS011;61288;53.446;-2.266;2023-12-07T04:39:40;14.10;;;4.18;;
73100;SDS011;61288;53.446;-2.266;2023-12-07T04:42:05;11.70;;;4.38;;
73100;SDS011;61288;53.446;-2.266;2023-12-07T04:44:31;11.15;;;4.40;;
73100;SDS011;61288;53.446;-2.266;2023-12-07T04:46:56;12.02;;;4.63;;
73100;SDS011;61288;53.446;-2.266;2023-12-07T04:49:21;10.93;;;4.07;;
73100;SDS011;61288;53.446;-2.266;2023-12-07T04:51:47;10.82;;;4.40;;
73100;SDS011;61288;53.446;-2.266;2023-12-07T04:54:13;15.18;;;4.35;;
73100;SDS011;61288;53.446;-2.266;2023-12-07T04:56:43;13.43;;;4.22;;
73100;SDS011;61288;53.446;-2.266;2023-12-07T04:59:09;10.57;;;4.28;;
73100;SDS011;61288;53.446;-2.266;2023-12-07T05:01:35;10.02;;;4.22;;
73100;SDS011;61288;53.446;-2.266;2023-12-07T05:04:02;11.85;;;4.18;;
73100;SDS011;61288;53.446;-2.266;2023-12-07T05:06:30;15.88;;;4.88;;
73100;SDS011;61288;53.446;-2.266;2023-12-07T05:08:56;11.40;;;4.60;;
73100;SDS011;61288;53.446;-2.266;2023-12-07T05:11:22;10.13;;;4.30;;
73100;SDS011;61288;53.446;-2.266;2023-12-07T05:13:47;10.02;;;4.20;;
73100;SDS011;61288;53.446;-2.266;2023-12-07T05:16:13;10.73;;;4.28;;
73100;SDS011;61288;53.446;-2.266;2023-12-07T05:18:38;12.55;;;4.22;;
73100;SDS011;61288;53.446;-2.266;2023-12-07T05:21:04;11.10;;;4.63;;
73100;SDS011;61288;53.446;-2.266;2023-12-07T05:23:30;14.52;;;5.65;;
73100;SDS011;61288;53.446;-2.266;2023-12-07T05:25:56;12.73;;;4.40;;
73100;SDS011;61288;53.446;-2.266;2023-12-07T05:28:21;12.00;;;4.60;;
73100;SDS011;61288;53.446;-2.266;2023-12-07T05:30:47;15.27;;;4.43;;
73100;SDS011;61288;53.446;-2.266;2023-12-07T05:33:14;12.52;;;4.57;;
73100;SDS011;61288;53.446;-2.266;2023-12-07T05:35:40;11.52;;;4.20;;
73100;SDS011;61288;53.446;-2.266;2023-12-07T05:38:06;11.20;;;4.40;;
73100;SDS011;61288;53.446;-2.266;2023-12-07T05:40:32;10.73;;;3.92;;
73100;SDS011;61288;53.446;-2.266;2023-12-07T05:42:58;11.02;;;4.32;;
73100;SDS011;61288;53.446;-2.266;2023-12-07T05:45:24;9.80;;;4.22;;
73100;SDS011;61288;53.446;-2.266;2023-12-07T05:47:49;10.55;;;4.07;;
73100;SDS011;61288;53.446;-2.266;2023-12-07T05:50:15;9.95;;;4.00;;
73100;SDS011;61288;53.446;-2.266;2023-12-07T05:52:40;11.10;;;3.90;;
73100;SDS011;61288;53.446;-2.266;2023-12-07T05:55:06;9.88;;;3.60;;
73100;SDS011;61288;53.446;-2.266;2023-12-07T05:57:31;7.80;;;2.90;;
73100;SDS011;61288;53.446;-2.266;2023-12-07T05:59:57;9.50;;;3.60;;
73100;SDS011;61288;53.446;-2.266;2023-12-07T06:02:22;8.68;;;3.25;;
73100;SDS011;61288;53.446;-2.266;2023-12-07T06:04:48;7.38;;;3.20;;
73100;SDS011;61288;53.446;-2.266;2023-12-07T06:07:13;10.20;;;3.50;;
73100;SDS011;61288;53.446;-2.266;2023-12-07T06:09:39;9.70;;;3.05;;
73100;SDS011;61288;53.446;-2.266;2023-12-07T06:12:06;9.82;;;3.13;;
73100;SDS011;61288;53.446;-2.266;2023-12-07T06:14:32;9.07;;;2.92;;
73100;SDS011;61288;53.446;-2.266;2023-12-07T06:16:57;7.22;;;2.70;;
73100;SDS011;61288;53.446;-2.266;2023-12-07T06:19:24;6.22;;;2.60;;
73100;SDS011;61288;53.446;-2.266;2023-12-07T06:21:50;12.85;;;3.25;;
73100;SDS011;61288;53.446;-2.266;2023-12-07T06:24:15;6.68;;;2.70;;
73100;SDS011;61288;53.446;-2.266;2023-12-07T06:26:40;8.30;;;2.92;;
73100;SDS011;61288;53.446;-2.266;2023-12-07T06:29:06;7.85;;;3.08;;
73100;SDS011;61288;53.446;-2.266;2023-12-07T06:31:32;7.63;;;2.90;;
73100;SDS011;61288;53.446;-2.266;2023-12-07T06:33:58;8.75;;;3.00;;
73100;SDS011;61288;53.446;-2.266;2023-12-07T06:36:25;7.82;;;2.90;;
73100;SDS011;61288;53.446;-2.266;2023-12-07T06:38:52;7.65;;;2.95;;
73100;SDS011;61288;53.446;-2.266;2023-12-07T06:41:17;8.00;;;3.15;;
73100;SDS011;61288;53.446;-2.266;2023-12-07T06:43:43;8.93;;;2.95;;
73100;SDS011;61288;53.446;-2.266;2023-12-07T06:46:12;7.15;;;2.70;;
73100;SDS011;61288;53.446;-2.266;2023-12-07T06:48:39;7.82;;;2.83;;
73100;SDS011;61288;53.446;-2.266;2023-12-07T06:51:06;8.60;;;3.00;;
73100;SDS011;61288;53.446;-2.266;2023-12-07T06:53:34;10.57;;;3.20;;
73100;SDS011;61288;53.446;-2.266;2023-12-07T06:55:59;9.90;;;3.10;;
73100;SDS011;61288;53.446;-2.266;2023-12-07T06:58:25;8.38;;;3.17;;
73100;SDS011;61288;53.446;-2.266;2023-12-07T07:00:50;8.27;;;3.33;;
73100;SDS011;61288;53.446;-2.266;2023-12-07T07:03:16;8.60;;;3.17;;
73100;SDS011;61288;53.446;-2.266;2023-12-07T07:05:42;7.43;;;2.53;;
73100;SDS011;61288;53.446;-2.266;2023-12-07T07:08:08;7.22;;;3.00;;
73100;SDS011;61288;53.446;-2.266;2023-12-07T07:10:34;10.23;;;3.47;;
73100;SDS011;61288;53.446;-2.266;2023-12-07T07:13:02;9.32;;;2.95;;
73100;SDS011;61288;53.446;-2.266;2023-12-07T07:15:30;8.55;;;2.90;;
73100;SDS011;61288;53.446;-2.266;2023-12-07T07:17:56;8.52;;;3.03;;
73100;SDS011;61288;53.446;-2.266;2023-12-07T07:20:21;8.52;;;3.05;;
73100;SDS011;61288;53.446;-2.266;2023-12-07T07:22:47;7.63;;;3.20;;
73100;SDS011;61288;53.446;-2.266;2023-12-07T07:25:13;9.10;;;3.00;;
73100;SDS011;61288;53.446;-2.266;2023-12-07T07:27:41;7.20;;;3.45;;
73100;SDS011;61288;53.446;-2.266;2023-12-07T07:30:07;7.22;;;3.13;;
73100;SDS011;61288;53.446;-2.266;2023-12-07T07:32:33;8.88;;;2.95;;
73100;SDS011;61288;53.446;-2.266;2023-12-07T07:35:00;6.28;;;2.33;;
73100;SDS011;61288;53.446;-2.266;2023-12-07T07:37:26;10.02;;;2.70;;
73100;SDS011;61288;53.446;-2.266;2023-12-07T07:39:52;7.15;;;2.80;;
73100;SDS011;61288;53.446;-2.266;2023-12-07T07:42:18;7.15;;;2.80;;
73100;SDS011;61288;53.446;-2.266;2023-12-07T07:44:43;7.30;;;3.00;;
73100;SDS011;61288;53.446;-2.266;2023-12-07T07:47:09;7.95;;;2.40;;
73100;SDS011;61288;53.446;-2.266;2023-12-07T07:49:34;5.75;;;2.00;;
73100;SDS011;61288;53.446;-2.266;2023-12-07T07:52:01;5.20;;;2.47;;
73100;SDS011;61288;53.446;-2.266;2023-12-07T07:54:26;5.47;;;2.38;;
73100;SDS011;61288;53.446;-2.266;2023-12-07T07:56:52;6.20;;;2.47;;
73100;SDS011;61288;53.446;-2.266;2023-12-07T07:59:17;6.00;;;2.53;;
73100;SDS011;61288;53.446;-2.266;2023-12-07T08:01:43;5.20;;;2.00;;
73100;SDS011;61288;53.446;-2.266;2023-12-07T08:04:12;3.75;;;1.83;;
73100;SDS011;61288;53.446;-2.266;2023-12-07T08:06:37;5.45;;;2.20;;
73100;SDS011;61288;53.446;-2.266;2023-12-07T08:09:03;6.88;;;2.30;;
73100;SDS011;61288;53.446;-2.266;2023-12-07T08:11:29;6.20;;;1.80;;
73100;SDS011;61288;53.446;-2.266;2023-12-07T08:13:54;6.47;;;2.30;;
73100;SDS011;61288;53.446;-2.266;2023-12-07T08:16:20;4.82;;;1.90;;
73100;SDS011;61288;53.446;-2.266;2023-12-07T08:18:45;5.75;;;2.08;;
73100;SDS011;61288;53.446;-2.266;2023-12-07T08:21:20;5.65;;;2.20;;
73100;SDS011;61288;53.446;-2.266;2023-12-07T08:23:46;4.82;;;1.90;;
73100;SDS011;61288;53.446;-2.266;2023-12-07T08:26:12;4.45;;;2.13;;
73100;SDS011;61288;53.446;-2.266;2023-12-07T08:28:39;5.00;;;2.13;;
73100;SDS011;61288;53.446;-2.266;2023-12-07T08:31:05;5.75;;;2.20;;
73100;SDS011;61288;53.446;-2.266;2023-12-07T08:33:31;5.40;;;2.00;;
73100;SDS011;61288;53.446;-2.266;2023-12-07T08:35:59;4.95;;;2.15;;
73100;SDS011;61288;53.446;-2.266;2023-12-07T08:38:25;3.67;;;2.05;;
73100;SDS011;61288;53.446;-2.266;2023-12-07T08:40:50;4.25;;;1.88;;
73100;SDS011;61288;53.446;-2.266;2023-12-07T08:43:16;2.67;;;1.70;;
73100;SDS011;61288;53.446;-2.266;2023-12-07T08:45:43;4.60;;;2.03;;
73100;SDS011;61288;53.446;-2.266;2023-12-07T08:48:09;4.35;;;2.00;;
73100;SDS011;61288;53.446;-2.266;2023-12-07T08:50:34;3.97;;;1.70;;
73100;SDS011;61288;53.446;-2.266;2023-12-07T08:52:59;3.35;;;1.70;;
73100;SDS011;61288;53.446;-2.266;2023-12-07T08:55:25;3.65;;;1.80;;
73100;SDS011;61288;53.446;-2.266;2023-12-07T08:57:52;4.45;;;1.70;;
73100;SDS011;61288;53.446;-2.266;2023-12-07T09:00:18;3.80;;;1.48;;
73100;SDS011;61288;53.446;-2.266;2023-12-07T09:02:49;3.28;;;1.67;;
73100;SDS011;61288;53.446;-2.266;2023-12-07T09:05:14;3.25;;;1.67;;
73100;SDS011;61288;53.446;-2.266;2023-12-07T09:07:40;3.00;;;1.48;;
73100;SDS011;61288;53.446;-2.266;2023-12-07T09:10:06;3.20;;;1.80;;
73100;SDS011;61288;53.446;-2.266;2023-12-07T09:12:33;4.50;;;1.58;;
73100;SDS011;61288;53.446;-2.266;2023-12-07T09:15:01;3.03;;;1.40;;
73100;SDS011;61288;53.446;-2.266;2023-12-07T09:17:27;5.13;;;1.80;;
73100;SDS011;61288;53.446;-2.266;2023-12-07T09:19:53;2.78;;;1.40;;
73100;SDS011;61288;53.446;-2.266;2023-12-07T09:22:19;5.65;;;1.90;;
73100;SDS011;61288;53.446;-2.266;2023-12-07T09:24:45;2.78;;;1.60;;
73100;SDS011;61288;53.446;-2.266;2023-12-07T09:27:12;3.80;;;1.67;;
73100;SDS011;61288;53.446;-2.266;2023-12-07T09:29:39;1.95;;;1.30;;
73100;SDS011;61288;53.446;-2.266;2023-12-07T09:32:05;3.72;;;1.40;;
73100;SDS011;61288;53.446;-2.266;2023-12-07T09:34:32;2.85;;;1.42;;
73100;SDS011;61288;53.446;-2.266;2023-12-07T09:37:07;3.33;;;1.50;;
73100;SDS011;61288;53.446;-2.266;2023-12-07T09:39:34;3.42;;;1.70;;
73100;SDS011;61288;53.446;-2.266;2023-12-07T09:42:00;5.50;;;1.63;;
73100;SDS011;61288;53.446;-2.266;2023-12-07T09:44:26;1.90;;;1.50;;
73100;SDS011;61288;53.446;-2.266;2023-12-07T09:46:52;3.47;;;1.52;;
73100;SDS011;61288;53.446;-2.266;2023-12-07T09:49:17;2.78;;;1.60;;
73100;SDS011;61288;53.446;-2.266;2023-12-07T09:51:43;3.13;;;1.55;;
73100;SDS011;61288;53.446;-2.266;2023-12-07T09:54:11;5.53;;;1.77;;
73100;SDS011;61288;53.446;-2.266;2023-12-07T09:56:38;3.10;;;1.50;;
73100;SDS011;61288;53.446;-2.266;2023-12-07T09:59:04;2.38;;;1.52;;
73100;SDS011;61288;53.446;-2.266;2023-12-07T10:01:30;5.88;;;1.80;;
73100;SDS011;61288;53.446;-2.266;2023-12-07T10:07:01;4.63;;;1.80;;
73100;SDS011;61288;53.446;-2.266;2023-12-07T10:09:27;4.20;;;1.80;;
73100;SDS011;61288;53.446;-2.266;2023-12-07T10:12:02;4.63;;;2.15;;
73100;SDS011;61288;53.446;-2.266;2023-12-07T10:14:29;3.33;;;1.70;;
73100;SDS011;61288;53.446;-2.266;2023-12-07T10:16:54;3.25;;;1.70;;
73100;SDS011;61288;53.446;-2.266;2023-12-07T10:19:21;5.55;;;1.63;;
73100;SDS011;61288;53.446;-2.266;2023-12-07T10:21:48;5.95;;;1.83;;
73100;SDS011;61288;53.446;-2.266;2023-12-07T10:24:15;5.18;;;1.90;;
73100;SDS011;61288;53.446;-2.266;2023-12-07T10:26:45;5.00;;;1.88;;
73100;SDS011;61288;53.446;-2.266;2023-12-07T10:29:12;5.10;;;2.00;;
73100;SDS011;61288;53.446;-2.266;2023-12-07T10:31:38;3.38;;;1.70;;
73100;SDS011;61288;53.446;-2.266;2023-12-07T10:34:07;5.90;;;2.10;;
73100;SDS011;61288;53.446;-2.266;2023-12-07T10:36:33;5.43;;;2.10;;
73100;SDS011;61288;53.446;-2.266;2023-12-07T10:38:59;5.68;;;2.25;;
73100;SDS011;61288;53.446;-2.266;2023-12-07T10:41:25;5.50;;;2.20;;
73100;SDS011;61288;53.446;-2.266;2023-12-07T10:43:56;4.82;;;2.00;;
73100;SDS011;61288;53.446;-2.266;2023-12-07T10:46:29;5.38;;;2.15;;
73100;SDS011;61288;53.446;-2.266;2023-12-07T10:48:59;4.60;;;1.80;;
73100;SDS011;61288;53.446;-2.266;2023-12-07T10:51:37;5.07;;;2.17;;
73100;SDS011;61288;53.446;-2.266;2023-12-07T10:54:06;5.75;;;2.22;;
73100;SDS011;61288;53.446;-2.266;2023-12-07T10:56:42;4.60;;;1.83;;
73100;SDS011;61288;53.446;-2.266;2023-12-07T10:59:09;5.10;;;1.83;;
73100;SDS011;61288;53.446;-2.266;2023-12-07T11:01:39;5.70;;;1.77;;
73100;SDS011;61288;53.446;-2.266;2023-12-07T11:04:05;4.47;;;1.50;;
73100;SDS011;61288;53.446;-2.266;2023-12-07T11:06:32;4.22;;;1.73;;
73100;SDS011;61288;53.446;-2.266;2023-12-07T11:09:00;2.45;;;1.42;;
73100;SDS011;61288;53.446;-2.266;2023-12-07T11:11:51;4.80;;;1.60;;
73100;SDS011;61288;53.446;-2.266;2023-12-07T11:14:18;2.42;;;1.35;;
73100;SDS011;61288;53.446;-2.266;2023-12-07T11:16:47;2.97;;;1.52;;
73100;SDS011;61288;53.446;-2.266;2023-12-07T11:22:11;2.30;;;1.40;;
73100;SDS011;61288;53.446;-2.266;2023-12-07T11:27:22;2.70;;;1.40;;
73100;SDS011;61288;53.446;-2.266;2023-12-07T11:29:49;3.15;;;1.30;;
73100;SDS011;61288;53.446;-2.266;2023-12-07T11:32:14;1.55;;;1.20;;
73100;SDS011;61288;53.446;-2.266;2023-12-07T11:34:40;2.55;;;1.30;;
73100;SDS011;61288;53.446;-2.266;2023-12-07T11:37:07;3.65;;;1.50;;
73100;SDS011;61288;53.446;-2.266;2023-12-07T11:39:34;1.25;;;1.10;;
73100;SDS011;61288;53.446;-2.266;2023-12-07T11:42:07;1.42;;;1.25;;
73100;SDS011;61288;53.446;-2.266;2023-12-07T11:44:38;4.47;;;1.30;;
73100;SDS011;61288;53.446;-2.266;2023-12-07T11:47:04;1.25;;;1.13;;
73100;SDS011;61288;53.446;-2.266;2023-12-07T11:49:31;4.47;;;1.90;;
73100;SDS011;61288;53.446;-2.266;2023-12-07T11:52:00;4.45;;;1.67;;
73100;SDS011;61288;53.446;-2.266;2023-12-07T11:54:26;4.80;;;1.63;;
73100;SDS011;61288;53.446;-2.266;2023-12-07T11:56:55;2.83;;;1.40;;
73100;SDS011;61288;53.446;-2.266;2023-12-07T11:59:22;3.80;;;1.60;;
73100;SDS011;61288;53.446;-2.266;2023-12-07T12:01:50;2.97;;;1.48;;
73100;SDS011;61288;53.446;-2.266;2023-12-07T12:04:16;4.60;;;1.70;;
73100;SDS011;61288;53.446;-2.266;2023-12-07T12:06:45;3.92;;;1.60;;
73100;SDS011;61288;53.446;-2.266;2023-12-07T12:09:14;5.18;;;1.67;;
73100;SDS011;61288;53.446;-2.266;2023-12-07T12:11:46;3.70;;;1.70;;
73100;SDS011;61288;53.446;-2.266;2023-12-07T12:14:15;3.05;;;1.50;;
73100;SDS011;61288;53.446;-2.266;2023-12-07T12:16:45;3.75;;;2.00;;
73100;SDS011;61288;53.446;-2.266;2023-12-07T12:19:12;5.32;;;1.88;;
73100;SDS011;61288;53.446;-2.266;2023-12-07T12:21:39;7.15;;;1.90;;
73100;SDS011;61288;53.446;-2.266;2023-12-07T12:24:06;8.35;;;2.17;;
73100;SDS011;61288;53.446;-2.266;2023-12-07T12:26:35;5.82;;;1.98;;
73100;SDS011;61288;53.446;-2.266;2023-12-07T12:29:04;4.90;;;1.90;;
73100;SDS011;61288;53.446;-2.266;2023-12-07T12:31:30;6.15;;;1.80;;
73100;SDS011;61288;53.446;-2.266;2023-12-07T12:33:55;9.13;;;2.75;;
73100;SDS011;61288;53.446;-2.266;2023-12-07T12:36:21;4.32;;;1.90;;
73100;SDS011;61288;53.446;-2.266;2023-12-07T12:38:48;7.63;;;2.45;;
73100;SDS011;61288;53.446;-2.266;2023-12-07T12:41:20;7.82;;;2.10;;
73100;SDS011;61288;53.446;-2.266;2023-12-07T12:43:47;6.85;;;2.60;;
73100;SDS011;61288;53.446;-2.266;2023-12-07T12:46:14;7.40;;;2.78;;
73100;SDS011;61288;53.446;-2.266;2023-12-07T12:48:53;9.15;;;2.60;;
73100;SDS011;61288;53.446;-2.266;2023-12-07T12:51:20;9.43;;;2.53;;
73100;SDS011;61288;53.446;-2.266;2023-12-07T12:53:46;10.68;;;2.95;;
73100;SDS011;61288;53.446;-2.266;2023-12-07T12:56:13;9.98;;;3.40;;
73100;SDS011;61288;53.446;-2.266;2023-12-07T12:58:40;8.63;;;2.95;;
73100;SDS011;61288;53.446;-2.266;2023-12-07T13:01:06;10.50;;;2.78;;
73100;SDS011;61288;53.446;-2.266;2023-12-07T13:03:32;9.98;;;3.42;;
73100;SDS011;61288;53.446;-2.266;2023-12-07T13:05:57;10.68;;;3.17;;
73100;SDS011;61288;53.446;-2.266;2023-12-07T13:08:24;7.72;;;2.65;;
73100;SDS011;61288;53.446;-2.266;2023-12-07T13:10:50;9.10;;;2.70;;
73100;SDS011;61288;53.446;-2.266;2023-12-07T13:13:15;9.70;;;2.90;;
73100;SDS011;61288;53.446;-2.266;2023-12-07T13:15:41;8.82;;;2.88;;
73100;SDS011;61288;53.446;-2.266;2023-12-07T13:18:07;10.73;;;2.65;;
73100;SDS011;61288;53.446;-2.266;2023-12-07T13:20:34;7.50;;;2.90;;
73100;SDS011;61288;53.446;-2.266;2023-12-07T13:25:29;10.05;;;2.97;;
73100;SDS011;61288;53.446;-2.266;2023-12-07T13:27:55;8.73;;;2.72;;
73100;SDS011;61288;53.446;-2.266;2023-12-07T13:30:21;9.32;;;3.03;;
73100;SDS011;61288;53.446;-2.266;2023-12-07T13:32:46;9.45;;;2.88;;
73100;SDS011;61288;53.446;-2.266;2023-12-07T13:35:13;8.13;;;2.67;;
73100;SDS011;61288;53.446;-2.266;2023-12-07T13:37:38;8.73;;;2.38;;
73100;SDS011;61288;53.446;-2.266;2023-12-07T13:40:04;9.07;;;2.88;;
73100;SDS011;61288;53.446;-2.266;2023-12-07T13:42:35;12.68;;;2.88;;
73100;SDS011;61288;53.446;-2.266;2023-12-07T13:45:01;8.43;;;2.50;;
73100;SDS011;61288;53.446;-2.266;2023-12-07T13:47:28;7.38;;;3.15;;
73100;SDS011;61288;53.446;-2.266;2023-12-07T13:49:59;10.10;;;2.83;;
73100;SDS011;61288;53.446;-2.266;2023-12-07T13:52:26;11.10;;;3.25;;
73100;SDS011;61288;53.446;-2.266;2023-12-07T13:54:54;9.23;;;2.65;;
73100;SDS011;61288;53.446;-2.266;2023-12-07T13:57:21;7.38;;;2.88;;
73100;SDS011;61288;53.446;-2.266;2023-12-07T13:59:50;11.80;;;2.67;;
73100;SDS011;61288;53.446;-2.266;2023-12-07T14:02:16;8.35;;;2.63;;
73100;SDS011;61288;53.446;-2.266;2023-12-07T14:04:43;6.40;;;2.28;;
73100;SDS011;61288;53.446;-2.266;2023-12-07T14:07:09;7.82;;;2.90;;
73100;SDS011;61288;53.446;-2.266;2023-12-07T14:09:36;9.43;;;2.35;;
73100;SDS011;61288;53.446;-2.266;2023-12-07T14:12:04;9.25;;;2.72;;
73100;SDS011;61288;53.446;-2.266;2023-12-07T14:14:30;6.82;;;2.15;;
73100;SDS011;61288;53.446;-2.266;2023-12-07T14:16:56;8.95;;;2.45;;
73100;SDS011;61288;53.446;-2.266;2023-12-07T14:19:22;8.57;;;3.08;;
73100;SDS011;61288;53.446;-2.266;2023-12-07T14:21:47;6.35;;;2.10;;
73100;SDS011;61288;53.446;-2.266;2023-12-07T14:24:13;6.25;;;2.20;;
73100;SDS011;61288;53.446;-2.266;2023-12-07T14:26:42;5.47;;;2.15;;
73100;SDS011;61288;53.446;-2.266;2023-12-07T14:29:08;6.18;;;2.22;;
73100;SDS011;61288;53.446;-2.266;2023-12-07T14:31:35;7.82;;;2.03;;
73100;SDS011;61288;53.446;-2.266;2023-12-07T14:34:02;3.95;;;2.08;;
73100;SDS011;61288;53.446;-2.266;2023-12-07T14:36:28;3.70;;;1.85;;
73100;SDS011;61288;53.446;-2.266;2023-12-07T14:38:54;4.57;;;2.13;;
73100;SDS011;61288;53.446;-2.266;2023-12-07T14:41:20;6.03;;;1.77;;